Time,TemperatureF,DewpointF,PressureIn,WindDirection,WindDirectionDegrees,WindSpeedMPH,WindSpeedGustMPH,Humidity,HourlyPrecipIn,Conditions,Clouds,dailyrainin,SoftwareType,DateUTC
2013-06-07 00:14:00,53.1,52.0,29.94,ENE,59,0.0,-999.0,96,-99.99,,,0.00,weatherlink.com 1.10,2013-06-07 05:14:00,
2013-06-07 00:29:00,52.9,52.0,29.94,ENE,59,0.0,-999.0,96,-99.99,,,0.00,weatherlink.com 1.10,2013-06-07 05:29:00,
2013-06-07 00:44:00,52.8,52.0,29.94,ENE,59,0.0,-999.0,96,-99.99,,,0.00,weatherlink.com 1.10,2013-06-07 05:44:00,
2013-06-07 00:59:00,52.6,52.0,29.93,ENE,59,0.0,-999.0,96,-99.99,,,0.00,weatherlink.com 1.10,2013-06-07 05:59:00,
2013-06-07 01:13:00,52.6,52.0,29.94,ENE,59,0.0,-999.0,96,-99.99,,,0.00,weatherlink.com 1.10,2013-06-07 06:13:00,
2013-06-07 01:28:00,52.6,52.0,29.93,ENE,59,0.0,-999.0,96,-99.99,,,0.00,weatherlink.com 1.10,2013-06-07 06:28:00,
2013-06-07 01:43:00,52.6,52.0,29.93,ENE,59,0.0,-999.0,96,-99.99,,,0.00,weatherlink.com 1.10,2013-06-07 06:43:00,
2013-06-07 01:58:00,52.5,52.0,29.93,ENE,59,0.0,-999.0,97,-99.99,,,0.00,weatherlink.com 1.10,2013-06-07 06:58:00,
2013-06-07 02:14:00,52.5,52.0,29.93,ENE,59,0.0,-999.0,97,-99.99,,,0.00,weatherlink.com 1.10,2013-06-07 07:14:00,
2013-06-07 02:29:00,52.3,52.0,29.93,ENE,59,0.0,-999.0,97,-99.99,,,0.00,weatherlink.com 1.10,2013-06-07 07:29:00,
2013-06-07 02:44:00,52.3,52.0,29.93,ENE,59,0.0,-999.0,97,-99.99,,,0.00,weatherlink.com 1.10,2013-06-07 07:44:00,
2013-06-07 02:59:00,52.3,52.0,29.93,ENE,59,0.0,-999.0,97,-99.99,,,0.00,weatherlink.com 1.10,2013-06-07 07:59:00,
2013-06-07 03:14:00,52.2,51.0,29.93,ENE,59,0.0,-999.0,97,-99.99,,,0.00,weatherlink.com 1.10,2013-06-07 08:14:00,
2013-06-07 03:29:00,52.0,51.0,29.92,ENE,59,0.0,-999.0,97,-99.99,,,0.00,weatherlink.com 1.10,2013-06-07 08:29:00,
2013-06-07 03:44:00,52.0,51.0,29.92,ENE,59,0.0,-999.0,97,-99.99,,,0.00,weatherlink.com 1.10,2013-06-07 08:44:00,
2013-06-07 03:59:00,51.9,51.0,29.92,ENE,59,0.0,-999.0,97,-99.99,,,0.00,weatherlink.com 1.10,2013-06-07 08:59:00,
2013-06-07 04:14:00,51.7,51.0,29.92,ENE,59,0.0,-999.0,97,-99.99,,,0.00,weatherlink.com 1.10,2013-06-07 09:14:00,
2013-06-07 04:29:00,51.7,51.0,29.93,ENE,59,0.0,-999.0,97,-99.99,,,0.00,weatherlink.com 1.10,2013-06-07 09:29:00,
2013-06-07 04:44:00,51.7,51.0,29.93,ENE,59,0.0,-999.0,97,-99.99,,,0.00,weatherlink.com 1.10,2013-06-07 09:44:00,
2013-06-07 04:59:00,51.6,51.0,29.93,ENE,59,0.0,-999.0,97,-99.99,,,0.00,weatherlink.com 1.10,2013-06-07 09:59:00,
2013-06-07 05:15:00,51.6,51.0,29.93,ENE,59,0.0,-999.0,97,-99.99,,,0.00,weatherlink.com 1.10,2013-06-07 10:15:00,
2013-06-07 05:30:00,51.6,51.0,29.93,ENE,59,0.0,-999.0,97,-99.99,,,0.00,weatherlink.com 1.10,2013-06-07 10:30:00,
2013-06-07 05:45:00,51.4,51.0,29.94,ENE,59,0.0,-999.0,97,-99.99,,,0.00,weatherlink.com 1.10,2013-06-07 10:45:00,
2013-06-07 06:00:00,51.6,51.0,29.94,ENE,59,0.0,-999.0,97,-99.99,,,0.00,weatherlink.com 1.10,2013-06-07 11:00:00,
2013-06-07 06:15:00,51.6,51.0,29.94,ENE,59,0.0,-999.0,97,-99.99,,,0.00,weatherlink.com 1.10,2013-06-07 11:15:00,
2013-06-07 06:30:00,51.7,51.0,29.95,ENE,59,0.0,-999.0,97,-99.99,,,0.00,weatherlink.com 1.10,2013-06-07 11:30:00,
2013-06-07 06:45:00,51.9,51.0,29.95,ENE,59,0.0,-999.0,97,-99.99,,,0.00,weatherlink.com 1.10,2013-06-07 11:45:00,
2013-06-07 07:00:00,52.2,51.0,29.95,ENE,59,0.0,-999.0,97,-99.99,,,0.00,weatherlink.com 1.10,2013-06-07 12:00:00,
2013-06-07 07:14:00,52.5,52.0,29.95,ENE,59,0.0,-999.0,98,-99.99,,,0.00,weatherlink.com 1.10,2013-06-07 12:14:00,
2013-06-07 07:29:00,52.8,52.0,29.95,ENE,59,0.0,-999.0,98,-99.99,,,0.00,weatherlink.com 1.10,2013-06-07 12:29:00,
2013-06-07 07:44:00,53.1,53.0,29.95,ENE,59,0.0,-999.0,98,-99.99,,,0.00,weatherlink.com 1.10,2013-06-07 12:44:00,
2013-06-07 07:59:00,53.3,53.0,29.95,ENE,59,0.0,-999.0,98,-99.99,,,0.00,weatherlink.com 1.10,2013-06-07 12:59:00,
2013-06-07 08:14:00,53.6,53.0,29.95,ENE,59,0.0,-999.0,98,-99.99,,,0.00,weatherlink.com 1.10,2013-06-07 13:14:00,
2013-06-07 08:30:00,53.9,53.0,29.95,ENE,59,0.0,-999.0,98,-99.99,,,0.00,weatherlink.com 1.10,2013-06-07 13:30:00,
2013-06-07 08:45:00,53.9,53.0,29.95,ENE,59,0.0,-999.0,97,-99.99,,,0.00,weatherlink.com 1.10,2013-06-07 13:45:00,
2013-06-07 09:00:00,53.5,53.0,29.96,ENE,59,0.0,-999.0,97,-99.99,,,0.00,weatherlink.com 1.10,2013-06-07 14:00:00,
2013-06-07 09:15:00,53.5,52.0,29.96,SE,146,1.0,-999.0,96,-99.99,,,0.00,weatherlink.com 1.10,2013-06-07 14:15:00,
2013-06-07 09:30:00,53.8,52.0,29.96,South,180,0.0,-999.0,95,-99.99,,,0.00,weatherlink.com 1.10,2013-06-07 14:30:00,
2013-06-07 09:45:00,54.7,53.0,29.95,South,180,0.0,-999.0,94,-99.99,,,0.00,weatherlink.com 1.10,2013-06-07 14:45:00,
2013-06-07 10:00:00,55.6,52.0,29.95,SSE,164,0.0,-999.0,87,-99.99,,,0.00,weatherlink.com 1.10,2013-06-07 15:00:00,
2013-06-07 10:15:00,57.0,52.0,29.95,SSE,164,0.0,-999.0,84,-99.99,,,0.00,weatherlink.com 1.10,2013-06-07 15:15:00,
2013-06-07 10:30:00,57.8,50.0,29.95,SSE,164,0.0,-999.0,75,-99.99,,,0.00,weatherlink.com 1.10,2013-06-07 15:30:00,
2013-06-07 10:45:00,59.6,53.0,29.94,North,9,0.0,-999.0,78,-99.99,,,0.00,weatherlink.com 1.10,2013-06-07 15:45:00,
2013-06-07 11:00:00,60.7,52.0,29.94,ENE,63,0.0,-999.0,73,-99.99,,,0.00,weatherlink.com 1.10,2013-06-07 16:00:00,
2013-06-07 11:15:00,62.1,52.0,29.93,SSW,208,0.0,-999.0,70,-99.99,,,0.00,weatherlink.com 1.10,2013-06-07 16:15:00,
2013-06-07 11:30:00,63.2,50.0,29.93,SE,134,0.0,-999.0,62,-99.99,,,0.00,weatherlink.com 1.10,2013-06-07 16:30:00,
2013-06-07 11:46:00,64.3,52.0,29.93,SE,139,0.0,-999.0,65,-99.99,,,0.01,weatherlink.com 1.10,2013-06-07 16:46:00,
2013-06-07 12:01:00,64.7,52.0,29.93,South,185,0.0,-999.0,63,-99.99,,,0.01,weatherlink.com 1.10,2013-06-07 17:01:00,
2013-06-07 12:16:00,65.0,52.0,29.92,South,185,0.0,-999.0,64,-99.99,,,0.01,weatherlink.com 1.10,2013-06-07 17:16:00,
2013-06-07 12:31:00,65.6,52.0,29.92,NNE,18,0.0,-999.0,61,-99.99,,,0.01,weatherlink.com 1.10,2013-06-07 17:31:00,
2013-06-07 12:46:00,67.3,49.0,29.91,East,96,0.0,-999.0,53,-99.99,,,0.01,weatherlink.com 1.10,2013-06-07 17:46:00,
2013-06-07 13:16:00,69.3,50.0,29.90,North,360,0.0,-999.0,50,-99.99,,,0.01,weatherlink.com 1.10,2013-06-07 18:16:00,
2013-06-07 13:31:00,69.6,48.0,29.89,South,179,1.0,-999.0,46,-99.99,,,0.01,weatherlink.com 1.10,2013-06-07 18:31:00,
2013-06-07 14:16:00,72.7,52.0,29.89,SSW,203,0.0,-999.0,49,-99.99,,,0.01,weatherlink.com 1.10,2013-06-07 19:16:00,
2013-06-07 14:31:00,72.0,49.0,29.88,North,360,0.0,-999.0,44,-99.99,,,0.01,weatherlink.com 1.10,2013-06-07 19:31:00,
2013-06-07 14:46:00,72.3,47.0,29.88,North,11,2.0,-999.0,41,-99.99,,,0.01,weatherlink.com 1.10,2013-06-07 19:46:00,
2013-06-07 15:01:00,72.7,50.0,29.88,East,99,1.0,-999.0,45,-99.99,,,0.01,weatherlink.com 1.10,2013-06-07 20:01:00,
2013-06-07 15:31:00,73.5,46.0,29.87,North,5,0.0,-999.0,37,-99.99,,,0.01,weatherlink.com 1.10,2013-06-07 20:31:00,
2013-06-07 15:46:00,74.0,51.0,29.86,ENE,69,2.0,-999.0,45,-99.99,,,0.01,weatherlink.com 1.10,2013-06-07 20:46:00,
2013-06-07 16:16:00,73.7,51.0,29.86,NE,52,1.0,-999.0,45,-99.99,,,0.01,weatherlink.com 1.10,2013-06-07 21:16:00,
2013-06-07 16:46:00,72.5,47.0,29.86,North,5,0.0,-999.0,40,-99.99,,,0.01,weatherlink.com 1.10,2013-06-07 21:46:00,
2013-06-07 17:01:00,71.3,50.0,29.85,North,5,0.0,-999.0,48,-99.99,,,0.01,weatherlink.com 1.10,2013-06-07 22:01:00,
2013-06-07 17:31:00,69.3,46.0,29.85,SW,222,2.0,-999.0,44,-99.99,,,0.01,weatherlink.com 1.10,2013-06-07 22:31:00,
2013-06-07 17:46:00,69.1,47.0,29.85,SW,218,0.0,-999.0,46,-99.99,,,0.01,weatherlink.com 1.10,2013-06-07 22:46:00,
2013-06-07 18:01:00,69.9,46.0,29.84,South,183,0.0,-999.0,43,-99.99,,,0.01,weatherlink.com 1.10,2013-06-07 23:01:00,
2013-06-07 18:16:00,70.3,46.0,29.84,SW,221,3.0,-999.0,42,-99.99,,,0.01,weatherlink.com 1.10,2013-06-07 23:16:00,
2013-06-07 18:31:00,69.6,47.0,29.84,SW,227,0.0,-999.0,45,-99.99,,,0.01,weatherlink.com 1.10,2013-06-07 23:31:00,
2013-06-07 18:46:00,68.9,47.0,29.84,WNW,290,1.0,-999.0,46,-99.99,,,0.01,weatherlink.com 1.10,2013-06-07 23:46:00,
2013-06-07 19:01:00,68.3,48.0,29.84,North,351,0.0,-999.0,48,-99.99,,,0.01,weatherlink.com 1.10,2013-06-08 00:01:00,
2013-06-07 19:16:00,67.4,47.0,29.84,North,351,0.0,-999.0,49,-99.99,,,0.01,weatherlink.com 1.10,2013-06-08 00:16:00,
2013-06-07 19:31:00,66.8,49.0,29.84,North,351,0.0,-999.0,54,-99.99,,,0.01,weatherlink.com 1.10,2013-06-08 00:31:00,
2013-06-07 20:01:00,65.3,50.0,29.84,North,351,0.0,-999.0,59,-99.99,,,0.01,weatherlink.com 1.10,2013-06-08 01:01:00,
2013-06-07 20:16:00,63.9,50.0,29.85,North,351,0.0,-999.0,62,-99.99,,,0.01,weatherlink.com 1.10,2013-06-08 01:16:00,
2013-06-07 20:31:00,62.4,50.0,29.85,North,351,0.0,-999.0,65,-99.99,,,0.01,weatherlink.com 1.10,2013-06-08 01:31:00,
2013-06-07 20:47:00,61.2,50.0,29.85,North,351,0.0,-999.0,67,-99.99,,,0.01,weatherlink.com 1.10,2013-06-08 01:47:00,
2013-06-07 21:02:00,59.8,50.0,29.85,North,351,0.0,-999.0,70,-99.99,,,0.01,weatherlink.com 1.10,2013-06-08 02:02:00,
2013-06-07 21:17:00,58.6,50.0,29.86,North,351,0.0,-999.0,72,-99.99,,,0.01,weatherlink.com 1.10,2013-06-08 02:17:00,
2013-06-07 21:47:00,56.9,50.0,29.86,North,351,0.0,-999.0,78,-99.99,,,0.01,weatherlink.com 1.10,2013-06-08 02:47:00,
2013-06-07 22:02:00,56.6,50.0,29.86,North,351,0.0,-999.0,78,-99.99,,,0.01,weatherlink.com 1.10,2013-06-08 03:02:00,
2013-06-07 22:17:00,56.3,50.0,29.86,North,351,0.0,-999.0,79,-99.99,,,0.01,weatherlink.com 1.10,2013-06-08 03:17:00,
2013-06-07 22:32:00,56.3,51.0,29.86,North,351,0.0,-999.0,81,-99.99,,,0.01,weatherlink.com 1.10,2013-06-08 03:32:00,
2013-06-07 22:47:00,56.0,50.0,29.86,North,351,0.0,-999.0,81,-99.99,,,0.01,weatherlink.com 1.10,2013-06-08 03:47:00,
2013-06-07 23:02:00,56.0,50.0,29.86,North,351,0.0,-999.0,81,-99.99,,,0.01,weatherlink.com 1.10,2013-06-08 04:02:00,
2013-06-07 23:17:00,55.9,51.0,29.85,North,351,0.0,-999.0,83,-99.99,,,0.01,weatherlink.com 1.10,2013-06-08 04:17:00,
2013-06-07 23:32:00,55.9,52.0,29.85,North,351,0.0,-999.0,85,-99.99,,,0.01,weatherlink.com 1.10,2013-06-08 04:32:00,
2013-06-07 23:47:00,55.7,51.0,29.84,North,351,0.0,-999.0,85,-99.99,,,0.01,weatherlink.com 1.10,2013-06-08 04:47:00,